Flight Track Log - Related Links

Times and Time Zones

All times are in EDT time to prevent confusion due to time zone crossing. See the UCA3597 flight status page for this flight to view local times or setup timezone preferences in your user account.

Time Position Orientation Groundspeed Altitude Reporting Facility
EDT Latitude Longitude Course Direction KTS MPH feet Rate Location/Type
Fri 07:23:02 PM 42.1597 -76.0525 212° Southwest 133 153 5,500  Level New York Center
Fri 07:24:03 PM 42.1253 -76.0833 214° Southwest 144 166 7,500 1,900 Climbing New York Center
Fri 07:25:02 PM 42.0861 -76.1167 212° Southwest 159 183 9,300 1,800 Climbing New York Center
Fri 07:26:03 PM 42.0472 -76.1497 212° Southwest 164 189 11,100 1,636 Climbing New York Center
Fri 07:27:00 PM 41.9593 -76.2784 212° Southwest  Level FlightAware Approximate
Fri 07:27:03 PM 42.0003 -76.1767 203° Southwest 182 209 12,600  Level New York Center
Fri 07:28:02 PM 41.9531 -76.2061 205° Southwest 188 216 14,000 1,438 Climbing New York Center
Fri 07:29:04 PM 41.9039 -76.2356 204° Southwest 188 216 15,500 1,059 Climbing New York Center
Fri 07:30:01 PM 41.8567 -76.2650 205° Southwest 201 231 16,100 250 Climbing New York Center
Fri 07:31:04 PM 41.7967 -76.2992 203° Southwest 222 255 16,000 -50 Descending New York Center
Fri 07:32:02 PM 41.7261 -76.3378 202° Southwest 244 281 16,000  Level New York Center
Fri 07:33:02 PM 41.6639 -76.3769 205° Southwest 244 281 16,000  Level New York Center
Fri 07:34:02 PM 41.6061 -76.4111 204° Southwest 250 288 16,000  Level New York Center
Fri 07:35:04 PM 41.5419 -76.4444 201° Southwest 250 288 16,000  Level New York Center
Fri 07:36:02 PM 41.4756 -76.4831 204° Southwest 250 288 16,000  Level New York Center
Fri 07:37:04 PM 41.4133 -76.5247 207° Southwest 245 282 16,000 -250 Level New York Center
Fri 07:38:02 PM 41.3489 -76.5608 203° Southwest 245 282 15,500 -650 Descending New York Center
Fri 07:39:04 PM 41.2889 -76.5944 203° Southwest 251 289 14,700 -655 Descending New York Center
Fri 07:40:01 PM 41.2225 -76.6356 205° Southwest 258 297 14,200 -353 Descending New York Center
Fri 07:41:03 PM 41.1558 -76.6739 203° Southwest 263 303 14,000 -99 Descending New York Center
Fri 07:42:02 PM 41.0914 -76.7122 204° Southwest 263 303 14,000  Level New York Center
Fri 07:43:02 PM 41.0292 -76.7481 203° Southwest 263 303 14,000  Level New York Center
Fri 07:44:04 PM 40.9647 -76.7864 204° Southwest 258 297 14,000  Level New York Center
Fri 07:45:01 PM 40.9003 -76.8247 204° Southwest 253 291 14,000  Level New York Center
Fri 07:46:02 PM 40.8444 -76.8556 203° Southwest 248 285 14,000  Level New York Center
Fri 07:47:04 PM 40.7758 -76.8931 202° Southwest 248 285 14,000  Level New York Center
Fri 07:48:03 PM 40.7061 -76.9117 191° South 248 285 14,000  Level New York Center
Fri 07:49:04 PM 40.6406 -76.9331 194° South 248 285 14,000  Level New York Center
Fri 07:50:03 PM 40.5706 -76.9542 193° South 248 285 14,000  Level New York Center
Fri 07:51:05 PM 40.5050 -76.9728 192° South 248 285 14,000 -400 Level New York Center
Fri 07:52:03 PM 40.4369 -76.9967 195° South 248 285 13,200 -872 Descending New York Center
Fri 07:53:02 PM 40.3650 -77.0175 192° South 254 292 12,300 -992 Descending New York Center
Fri 07:54:04 PM 40.2972 -77.0386 193° South 259 298 11,200 -1,000 Descending New York Center
Fri 07:55:02 PM 40.2272 -77.0594 193° South 264 304 10,300 -820 Descending New York Center
Fri 07:56:45 PM 40.1167 -77.1000 196° South 241 277 9,000 -479 Descending Potomac TRACON
Fri 07:57:45 PM 40.0500 -77.1167 191° South 222 255 9,000  Level Potomac TRACON
Fri 07:58:45 PM 40.0000 -77.1333 194° South 221 254 9,000  Level Potomac TRACON
Fri 07:59:45 PM 39.9333 -77.1500 191° South 218 251 9,000  Level Potomac TRACON
Fri 08:00:46 PM 39.8833 -77.1667 194° South 216 249 9,000  Level Potomac TRACON
Fri 08:01:46 PM 39.8167 -77.1833 191° South 223 257 9,000  Level Potomac TRACON
Fri 08:02:46 PM 39.7500 -77.2000 191° South 222 255 9,000  Level Potomac TRACON
Fri 08:03:46 PM 39.6833 -77.2167 191° South 222 255 9,000 -99 Level Potomac TRACON
Fri 08:04:47 PM 39.6500 -77.2833 237° Southwest 211 243 8,800 -545 Descending Potomac TRACON
Fri 08:05:47 PM 39.6167 -77.3333 229° Southwest 204 235 7,900 -579 Descending Potomac TRACON
Fri 08:06:41 PM 39.5667 -77.3500 194° South 220 253 7,700 -300 Descending Potomac TRACON
Fri 08:07:47 PM 39.5000 -77.3500 180° South 230 265 7,300 -333 Descending Potomac TRACON
Fri 08:08:47 PM 39.4333 -77.3667 191° South 239 275 7,000 -450 Descending Potomac TRACON
Fri 08:09:47 PM 39.3667 -77.3667 180° South 246 283 6,400 -850 Descending Potomac TRACON
Fri 08:10:47 PM 39.3000 -77.3667 180° South 258 297 5,300 -992 Descending Potomac TRACON
Fri 08:11:48 PM 39.2167 -77.3667 180° South 262 302 4,400 -645 Descending Potomac TRACON
Fri 08:12:48 PM 39.1500 -77.3500 169° South 256 295 4,000 -200 Descending Potomac TRACON
Fri 08:13:48 PM 39.0833 -77.3500 180° South 248 285 4,000  Level Potomac TRACON
Fri 08:14:48 PM 39.0167 -77.3500 180° South 249 287 4,000 -100 Level Potomac TRACON
Fri 08:15:48 PM 38.9333 -77.3500 180° South 255 293 3,800 -446 Descending Potomac TRACON
Fri 08:16:49 PM 38.8667 -77.3500 180° South 265 305 3,100 -545 Descending Potomac TRACON
Fri 08:17:49 PM 38.8000 -77.3833 201° Southwest 256 295 2,700 -545 Descending Potomac TRACON
Fri 08:18:50 PM 38.8333 -77.4333 311° West 214 246 2,000 -793 Descending Potomac TRACON
Fri 08:19:50 PM 38.8833 -77.4333 360° North 133 153 1,100 -730 Descending Potomac TRACON
Fri 08:20:45 PM 38.9167 -77.4333 360° North 108 124 600 -545 Descending Potomac TRACON
Fri 08:22:00 PM 38.9333 -77.4500 349° North  Level FlightAware Approximate
Fri 08:29:00 PM 38.9474 -77.4599 349° North  Level Estimated
Fri 08:30:00 PM 38.9474 -77.4599 151° Southeast  Level Estimated

Login

Don't have an account? Register now (free) for customized features, flight alerts, and more!